createdAt,value
2023-02-20T00:02:13.286Z,1.50
2023-02-20T00:04:41.393Z,1.30
2023-02-20T00:07:09.742Z,1.30
2023-02-20T00:09:38.023Z,1.40
2023-02-20T00:12:11.854Z,1.40
2023-02-20T00:14:44.004Z,1.30
2023-02-20T00:17:12.976Z,1.40
2023-02-20T00:19:41.237Z,1.60
2023-02-20T00:22:09.489Z,1.40
2023-02-20T00:24:38.540Z,1.10
2023-02-20T00:27:06.750Z,1.40
2023-02-20T00:29:37.084Z,1.30
2023-02-20T00:32:07.200Z,1.70
2023-02-20T00:34:35.688Z,1.10
2023-02-20T00:37:05.682Z,1.50
2023-02-20T00:39:34.807Z,1.40
2023-02-20T00:42:03.267Z,1.50
2023-02-20T00:44:33.944Z,1.50
2023-02-20T00:47:02.396Z,1.20
2023-02-20T00:49:30.662Z,1.40
2023-02-20T00:52:10.956Z,1.60
2023-02-20T00:54:39.173Z,1.80
2023-02-20T00:57:08.525Z,1.40
2023-02-20T00:59:36.851Z,1.50
2023-02-20T01:02:22.072Z,1.30
2023-02-20T01:04:51.479Z,1.80
2023-02-20T01:07:19.773Z,1.70
2023-02-20T01:09:48.140Z,1.10
2023-02-20T01:12:16.978Z,1.10
2023-02-20T01:14:46.271Z,1.40
2023-02-20T01:17:15.028Z,1.50
2023-02-20T01:19:44.357Z,1.40
2023-02-20T01:22:12.805Z,1.00
2023-02-20T01:24:41.992Z,1.30
2023-02-20T01:27:10.344Z,1.60
2023-02-20T01:29:38.463Z,1.20
2023-02-20T01:32:07.649Z,1.20
2023-02-20T01:34:36.206Z,1.40
2023-02-20T01:37:04.503Z,1.20
2023-02-20T01:39:32.704Z,1.60
2023-02-20T01:42:02.227Z,1.40
2023-02-20T01:44:32.438Z,1.60
2023-02-20T01:47:01.757Z,1.40
2023-02-20T01:49:36.723Z,2.00
2023-02-20T01:52:14.275Z,1.40
2023-02-20T01:54:44.123Z,1.50
2023-02-20T01:57:16.215Z,1.40
2023-02-20T01:59:44.580Z,1.20
2023-02-20T02:02:15.631Z,1.20
2023-02-20T02:04:44.090Z,1.50
2023-02-20T02:07:15.262Z,1.00
2023-02-20T02:09:52.972Z,1.00
2023-02-20T02:12:23.091Z,1.20
2023-02-20T02:14:51.481Z,1.90
2023-02-20T02:17:38.639Z,1.00
2023-02-20T02:20:12.633Z,1.10
2023-02-20T02:22:49.330Z,1.30
2023-02-20T02:25:53.128Z,0.90
2023-02-20T02:28:33.223Z,1.20
2023-02-20T02:31:32.350Z,1.40
2023-02-20T02:34:26.572Z,1.10
2023-02-20T02:37:11.940Z,1.60
2023-02-20T02:39:51.261Z,1.00
2023-02-20T02:42:43.519Z,1.20
2023-02-20T02:45:17.923Z,1.30
2023-02-20T02:47:51.476Z,1.00
2023-02-20T02:50:29.379Z,1.10
2023-02-20T02:52:57.889Z,0.90
2023-02-20T02:55:30.231Z,0.90
2023-02-20T02:57:58.597Z,1.00
2023-02-20T03:00:29.554Z,1.30
2023-02-20T03:03:08.570Z,1.10
2023-02-20T03:05:48.434Z,1.00
2023-02-20T03:08:34.031Z,1.00
2023-02-20T03:11:07.041Z,1.10
2023-02-20T03:14:00.580Z,1.00
2023-02-20T03:17:00.114Z,1.00
2023-02-20T03:19:46.611Z,0.90
2023-02-20T03:22:36.944Z,0.80
2023-02-20T03:25:14.249Z,0.80
2023-02-20T03:27:44.870Z,0.80
2023-02-20T03:30:23.594Z,1.00
2023-02-20T03:33:12.841Z,1.00
2023-02-20T03:36:00.898Z,0.70
2023-02-20T03:38:47.973Z,1.00
2023-02-20T03:41:34.917Z,1.00
2023-02-20T03:44:04.712Z,1.00
2023-02-20T03:46:33.812Z,1.10
2023-02-20T03:49:14.231Z,1.00
2023-02-20T03:51:43.513Z,0.90
2023-02-20T03:54:19.903Z,1.00
2023-02-20T03:56:55.835Z,1.10
2023-02-20T04:00:04.299Z,0.80
2023-02-20T04:02:45.380Z,0.90
2023-02-20T04:05:18.507Z,0.90
2023-02-20T04:09:12.124Z,0.90
2023-02-20T04:11:40.774Z,1.00
2023-02-20T04:14:09.312Z,1.00
2023-02-20T04:16:43.078Z,0.80
2023-02-20T04:19:15.977Z,1.20
2023-02-20T04:21:48.392Z,1.10
2023-02-20T04:24:32.841Z,0.90
2023-02-20T04:27:01.860Z,1.20
2023-02-20T04:29:30.013Z,1.60
2023-02-20T04:31:58.439Z,1.10
2023-02-20T04:34:29.952Z,1.00
2023-02-20T04:37:08.321Z,1.10
2023-02-20T04:39:36.710Z,0.90
2023-02-20T04:42:05.204Z,1.10
2023-02-20T04:44:36.862Z,1.20
2023-02-20T04:47:08.496Z,1.00
2023-02-20T04:49:37.022Z,1.20
2023-02-20T04:52:07.911Z,1.10
2023-02-20T04:54:36.601Z,1.00
2023-02-20T04:57:06.348Z,1.20
2023-02-20T04:59:41.377Z,1.60
2023-02-20T05:02:15.360Z,1.20
2023-02-20T05:04:43.721Z,1.30
2023-02-20T05:07:17.094Z,1.20
2023-02-20T05:09:45.700Z,0.80
2023-02-20T05:12:14.057Z,1.30
2023-02-20T05:14:44.011Z,1.20
2023-02-20T05:17:12.106Z,1.40
2023-02-20T05:19:41.645Z,1.00
2023-02-20T05:22:20.207Z,1.10
2023-02-20T05:24:49.305Z,1.20
2023-02-20T05:27:19.218Z,1.20
2023-02-20T05:29:48.242Z,1.60
2023-02-20T05:32:17.056Z,0.90
2023-02-20T05:34:45.332Z,1.20
2023-02-20T05:37:15.401Z,1.20
2023-02-20T05:39:43.532Z,1.00
2023-02-20T05:42:11.796Z,1.00
2023-02-20T05:44:39.926Z,1.20
2023-02-20T05:47:08.321Z,0.80
2023-02-20T05:49:36.949Z,0.90
2023-02-20T05:52:11.702Z,1.10
2023-02-20T05:54:40.486Z,1.00
2023-02-20T05:57:09.048Z,0.80
2023-02-20T05:59:37.096Z,1.10
2023-02-20T06:02:05.343Z,0.70
2023-02-20T06:04:33.497Z,1.10
2023-02-20T06:07:01.818Z,1.20
2023-02-20T06:09:30.112Z,1.20
2023-02-20T06:11:58.240Z,1.40
2023-02-20T06:14:26.890Z,1.20
2023-02-20T06:16:57.142Z,1.30
2023-02-20T06:19:27.158Z,1.20
2023-02-20T06:21:55.442Z,1.30
2023-02-20T06:24:23.511Z,1.00
2023-02-20T06:26:52.289Z,0.90
2023-02-20T06:29:20.713Z,1.00
2023-02-20T06:31:49.336Z,1.30
2023-02-20T06:34:17.764Z,1.20
2023-02-20T06:36:46.616Z,1.00
2023-02-20T06:39:14.824Z,1.00
2023-02-20T06:41:43.920Z,0.90
2023-02-20T06:44:12.173Z,1.20
2023-02-20T06:46:40.340Z,1.00
2023-02-20T06:49:09.509Z,1.00
2023-02-20T06:51:37.655Z,1.20
2023-02-20T06:54:06.650Z,0.80
2023-02-20T06:56:35.593Z,1.20
2023-02-20T06:59:06.860Z,1.50
2023-02-20T07:01:40.809Z,1.60
2023-02-20T07:04:17.170Z,1.50
2023-02-20T07:06:45.268Z,1.20
2023-02-20T07:09:14.150Z,1.20
2023-02-20T07:11:42.392Z,1.30
2023-02-20T07:14:11.099Z,0.90
2023-02-20T07:16:39.578Z,1.20
2023-02-20T07:19:14.556Z,1.20
2023-02-20T07:21:43.012Z,1.40
2023-02-20T07:24:11.163Z,1.00
2023-02-20T07:26:39.563Z,0.80
2023-02-20T07:29:08.170Z,1.00
2023-02-20T07:31:39.177Z,1.30
2023-02-20T07:34:08.343Z,1.20
2023-02-20T07:36:38.270Z,1.30
2023-02-20T07:39:09.702Z,1.40
2023-02-20T07:41:38.599Z,1.40
2023-02-20T07:44:07.619Z,1.20
2023-02-20T07:46:36.568Z,1.20
2023-02-20T07:49:05.656Z,1.40
2023-02-20T07:51:33.761Z,1.20
2023-02-20T07:54:02.184Z,1.50
2023-02-20T07:56:30.791Z,1.20
2023-02-20T07:59:00.823Z,1.60
2023-02-20T08:01:30.218Z,1.60
2023-02-20T08:03:58.555Z,1.60
2023-02-20T08:06:28.951Z,1.30
2023-02-20T08:08:57.435Z,1.50
2023-02-20T08:11:26.501Z,1.20
2023-02-20T08:13:55.800Z,1.60
2023-02-20T08:16:24.812Z,1.30
2023-02-20T08:18:53.732Z,1.50
2023-02-20T08:21:23.351Z,1.40
2023-02-20T08:23:52.885Z,1.20
2023-02-20T08:26:21.422Z,1.40
2023-02-20T08:28:49.897Z,1.10
2023-02-20T08:31:31.197Z,1.40
2023-02-20T08:34:00.975Z,2.10
2023-02-20T08:36:29.656Z,1.20
2023-02-20T08:38:58.011Z,1.60
2023-02-20T08:41:26.266Z,1.20
2023-02-20T08:43:54.613Z,1.20
2023-02-20T08:46:22.900Z,1.30
2023-02-20T08:48:51.090Z,1.50
2023-02-20T08:51:20.566Z,1.60
2023-02-20T08:53:49.250Z,1.60
2023-02-20T08:56:21.355Z,1.40
2023-02-20T08:58:49.900Z,1.40
2023-02-20T09:01:18.120Z,1.60
2023-02-20T09:03:46.436Z,1.70
2023-02-20T09:06:15.072Z,1.00
2023-02-20T09:08:43.347Z,1.40
2023-02-20T09:11:15.083Z,1.20
2023-02-20T09:13:44.989Z,1.40
2023-02-20T09:16:14.976Z,1.50
2023-02-20T09:18:44.156Z,1.30
2023-02-20T09:21:13.322Z,1.20
2023-02-20T09:23:41.544Z,1.90
2023-02-20T09:26:10.203Z,1.50
2023-02-20T09:28:40.231Z,1.50
2023-02-20T09:31:08.487Z,0.90
2023-02-20T09:33:37.556Z,1.20
2023-02-20T09:36:06.323Z,1.50
2023-02-20T09:38:34.802Z,1.50
2023-02-20T09:41:03.495Z,1.10
2023-02-20T09:43:50.029Z,1.40
2023-02-20T09:46:20.693Z,1.30
2023-02-20T09:49:09.856Z,1.20
2023-02-20T09:51:43.397Z,1.30
2023-02-20T09:54:32.054Z,1.30
2023-02-20T09:57:02.307Z,1.10
2023-02-20T09:59:37.758Z,1.40
2023-02-20T10:02:16.595Z,1.00
2023-02-20T10:05:00.776Z,1.80
2023-02-20T10:07:37.561Z,1.50
2023-02-20T10:10:19.707Z,1.20
2023-02-20T10:12:57.270Z,1.40
2023-02-20T10:15:31.098Z,1.70
2023-02-20T10:18:27.163Z,1.60
2023-02-20T10:21:01.526Z,1.60
2023-02-20T10:24:03.750Z,1.50
2023-02-20T10:26:35.049Z,1.90
2023-02-20T10:29:34.896Z,2.20
2023-02-20T10:32:10.725Z,1.50
2023-02-20T10:34:50.146Z,1.90
2023-02-20T10:37:20.132Z,1.80
2023-02-20T10:39:52.465Z,2.00
2023-02-20T10:42:24.758Z,1.80
2023-02-20T10:45:02.206Z,2.40
2023-02-20T10:47:44.188Z,1.50
2023-02-20T10:50:19.250Z,1.30
2023-02-20T10:52:52.200Z,1.30
2023-02-20T10:55:28.566Z,2.00
2023-02-20T10:58:17.785Z,2.40
2023-02-20T11:00:57.220Z,2.10
2023-02-20T11:03:32.107Z,1.70
2023-02-20T11:06:04.401Z,1.80
2023-02-20T11:08:32.772Z,2.50
2023-02-20T11:11:12.644Z,1.70
2023-02-20T11:13:41.346Z,1.70
2023-02-20T11:16:09.521Z,1.60
2023-02-20T11:18:39.080Z,1.70
2023-02-20T11:21:07.438Z,2.00
2023-02-20T11:23:43.297Z,2.70
2023-02-20T11:26:20.738Z,2.00
2023-02-20T11:28:57.979Z,2.40
2023-02-20T11:31:27.530Z,2.00
2023-02-20T11:33:56.739Z,2.60
2023-02-20T11:36:27.416Z,2.00
2023-02-20T11:39:03.341Z,2.20
2023-02-20T11:41:36.840Z,2.20
2023-02-20T11:44:11.189Z,2.40
2023-02-20T11:46:40.008Z,2.30
2023-02-20T11:49:10.408Z,2.10
2023-02-20T11:51:43.744Z,2.10
2023-02-20T11:54:17.858Z,1.30
2023-02-20T11:57:16.342Z,1.40
2023-02-20T12:00:08.293Z,1.40
2023-02-20T12:02:50.482Z,1.10
2023-02-20T12:05:19.634Z,1.20
2023-02-20T12:07:52.035Z,1.10
2023-02-20T12:10:31.666Z,1.90
2023-02-20T12:13:00.508Z,2.20
2023-02-20T12:15:29.118Z,2.20
2023-02-20T12:18:23.956Z,2.10
2023-02-20T12:21:19.423Z,2.70
2023-02-20T12:24:19.611Z,3.10
2023-02-20T12:26:59.261Z,3.40
2023-02-20T12:29:46.241Z,2.30
2023-02-20T12:32:42.950Z,2.30
2023-02-20T12:35:29.957Z,2.50
2023-02-20T12:38:17.000Z,2.50
2023-02-20T12:40:54.499Z,2.00
2023-02-20T12:43:45.885Z,2.00
2023-02-20T12:46:24.853Z,1.50
2023-02-20T12:48:53.154Z,1.60
2023-02-20T12:51:33.142Z,2.40
2023-02-20T12:54:13.723Z,1.60
2023-02-20T12:56:58.371Z,1.80
2023-02-20T12:59:35.985Z,1.70
2023-02-20T13:02:42.676Z,2.00
2023-02-20T13:05:21.068Z,2.40
2023-02-20T13:07:58.707Z,2.30
2023-02-20T13:10:34.713Z,2.50
2023-02-20T13:13:03.368Z,3.20
2023-02-20T13:16:13.172Z,2.40
2023-02-20T13:18:52.238Z,2.10
2023-02-20T13:21:23.856Z,2.10
2023-02-20T13:23:53.503Z,2.20
2023-02-20T13:26:34.134Z,2.10
2023-02-20T13:29:23.462Z,2.50
2023-02-20T13:32:02.642Z,2.90
2023-02-20T13:34:32.576Z,2.60
2023-02-20T13:37:01.030Z,2.50
2023-02-20T13:39:33.778Z,3.30
2023-02-20T13:42:04.618Z,3.20
2023-02-20T13:44:40.465Z,3.50
2023-02-20T13:47:22.160Z,3.00
2023-02-20T13:49:59.427Z,3.00
2023-02-20T13:52:40.559Z,2.50
2023-02-20T13:55:10.978Z,2.40
2023-02-20T13:57:49.104Z,2.40
2023-02-20T14:00:17.865Z,2.60
2023-02-20T14:02:46.070Z,3.40
2023-02-20T14:05:20.229Z,3.20
2023-02-20T14:07:49.372Z,3.80
2023-02-20T14:10:32.753Z,3.80
2023-02-20T14:13:15.386Z,4.00
2023-02-20T14:15:57.439Z,4.20
2023-02-20T14:18:30.058Z,4.50
2023-02-20T14:21:06.033Z,4.70
2023-02-20T14:23:42.797Z,4.70
2023-02-20T14:26:28.241Z,4.80
2023-02-20T14:28:57.322Z,5.10
2023-02-20T14:31:38.438Z,5.00
2023-02-20T14:34:41.920Z,5.10
2023-02-20T14:37:12.692Z,5.10
2023-02-20T14:40:02.710Z,5.40
2023-02-20T14:42:31.054Z,5.80
2023-02-20T14:45:04.821Z,5.70
2023-02-20T14:47:33.342Z,6.30
2023-02-20T14:50:36.861Z,6.60
2023-02-20T14:53:15.915Z,5.70
2023-02-20T14:55:44.313Z,5.50
2023-02-20T14:58:17.777Z,6.10
2023-02-20T15:00:46.379Z,5.80
2023-02-20T15:03:35.224Z,5.20
2023-02-20T15:06:04.246Z,5.30
2023-02-20T15:08:35.763Z,5.60
2023-02-20T15:11:11.610Z,4.70
2023-02-20T15:13:45.308Z,5.60
2023-02-20T15:16:24.881Z,5.90
2023-02-20T15:18:53.673Z,5.70
2023-02-20T15:21:32.292Z,6.00
2023-02-20T15:24:25.407Z,5.60
2023-02-20T15:26:53.741Z,5.70
2023-02-20T15:29:24.279Z,4.80
2023-02-20T15:32:17.066Z,5.50
2023-02-20T15:34:45.557Z,4.70
2023-02-20T15:37:39.300Z,5.20
2023-02-20T15:40:20.231Z,4.70
2023-02-20T15:42:50.006Z,3.70
2023-02-20T15:45:18.312Z,4.10
2023-02-20T15:47:47.198Z,4.30
2023-02-20T15:50:15.719Z,3.90
2023-02-20T15:52:44.659Z,4.00
2023-02-20T15:55:22.492Z,3.40
2023-02-20T15:57:54.938Z,3.60
2023-02-20T16:00:41.457Z,3.70
2023-02-20T16:03:09.670Z,3.60
2023-02-20T16:05:38.222Z,4.10
2023-02-20T16:08:07.613Z,3.80
2023-02-20T16:10:36.607Z,3.70
2023-02-20T16:13:04.723Z,3.80
2023-02-20T16:15:34.660Z,3.80
2023-02-20T16:18:02.824Z,3.30
2023-02-20T16:20:37.973Z,3.70
2023-02-20T16:26:16.870Z,3.30
2023-02-20T16:28:52.212Z,3.40
2023-02-20T16:31:20.617Z,3.80
2023-02-20T16:33:49.474Z,3.30
2023-02-20T16:36:24.565Z,3.40
2023-02-20T16:39:02.047Z,3.60
2023-02-20T16:41:34.003Z,3.60
2023-02-20T16:44:03.547Z,4.90
2023-02-20T16:46:38.263Z,4.10
2023-02-20T16:49:07.292Z,4.10
2023-02-20T16:51:35.490Z,3.30
2023-02-20T16:54:05.841Z,3.90
2023-02-20T16:56:34.350Z,3.60
2023-02-20T16:59:04.846Z,3.00
2023-02-20T17:01:33.312Z,3.70
2023-02-20T17:04:01.600Z,3.40
2023-02-20T17:06:30.698Z,3.50
2023-02-20T17:09:01.010Z,3.20
2023-02-20T17:11:30.976Z,3.20
2023-02-20T17:13:59.102Z,3.80
2023-02-20T17:16:31.648Z,3.20
2023-02-20T17:19:00.397Z,3.20
2023-02-20T17:21:28.796Z,3.70
2023-02-20T17:23:56.878Z,3.10
2023-02-20T17:26:26.887Z,3.20
2023-02-20T17:28:55.652Z,3.00
2023-02-20T17:31:25.507Z,2.50
2023-02-20T17:33:54.017Z,3.80
2023-02-20T17:36:22.188Z,3.70
2023-02-20T17:38:50.892Z,3.60
2023-02-20T17:41:20.002Z,3.60
2023-02-20T17:43:48.220Z,3.40
2023-02-20T17:46:17.632Z,3.00
2023-02-20T17:48:45.792Z,3.50
2023-02-20T17:51:17.619Z,3.20
2023-02-20T17:53:46.084Z,3.40
2023-02-20T17:56:15.771Z,3.80
2023-02-20T17:58:47.492Z,3.10
2023-02-20T18:01:15.984Z,2.90
2023-02-20T18:03:44.340Z,3.20
2023-02-20T18:06:18.725Z,3.00
2023-02-20T18:08:52.935Z,5.50
2023-02-20T18:11:22.155Z,3.50
2023-02-20T18:13:50.544Z,3.30
2023-02-20T18:16:19.147Z,2.90
2023-02-20T18:18:48.500Z,2.60
2023-02-20T18:21:27.842Z,2.80
2023-02-20T18:23:56.317Z,2.30
2023-02-20T18:26:24.556Z,2.90
2023-02-20T18:28:52.733Z,2.60
2023-02-20T18:31:23.699Z,2.10
2023-02-20T18:33:54.904Z,2.50
2023-02-20T18:36:24.479Z,2.50
2023-02-20T18:38:52.952Z,2.50
2023-02-20T18:41:21.679Z,3.00
2023-02-20T18:43:50.367Z,2.90
2023-02-20T18:46:33.077Z,2.60
2023-02-20T18:49:02.367Z,2.70
2023-02-20T18:51:36.857Z,3.40
2023-02-20T18:54:06.444Z,4.00
2023-02-20T18:56:36.371Z,3.30
2023-02-20T18:59:05.203Z,3.20
2023-02-20T19:01:33.916Z,3.70
2023-02-20T19:04:03.104Z,3.20
2023-02-20T19:06:34.591Z,3.90
2023-02-20T19:09:05.078Z,4.90
2023-02-20T19:11:33.748Z,4.00
2023-02-20T19:14:01.933Z,3.10
2023-02-20T19:16:31.050Z,4.10
2023-02-20T19:19:00.114Z,3.00
2023-02-20T19:21:28.409Z,2.70
2023-02-20T19:23:57.013Z,3.10
2023-02-20T19:26:25.132Z,3.20
2023-02-20T19:29:13.541Z,3.30
2023-02-20T19:31:42.039Z,3.70
2023-02-20T19:34:10.466Z,3.50
2023-02-20T19:36:40.401Z,3.20
2023-02-20T19:39:09.676Z,2.10
2023-02-20T19:41:39.447Z,2.30
2023-02-20T19:44:08.024Z,2.20
2023-02-20T19:46:36.383Z,2.20
2023-02-20T19:49:09.987Z,1.60
2023-02-20T19:51:40.327Z,2.00
2023-02-20T19:54:08.544Z,2.50
2023-02-20T19:56:38.546Z,1.60
2023-02-20T19:59:10.909Z,1.40
2023-02-20T20:01:40.166Z,1.60
2023-02-20T20:04:08.365Z,1.30
2023-02-20T20:06:37.586Z,3.40
2023-02-20T20:09:13.787Z,1.90
2023-02-20T20:11:44.869Z,2.30
2023-02-20T20:14:13.267Z,4.70
2023-02-20T20:16:43.845Z,1.90
2023-02-20T20:19:12.276Z,1.20
2023-02-20T20:21:40.574Z,1.70
2023-02-20T20:24:10.715Z,1.50
2023-02-20T20:26:40.126Z,1.30
2023-02-20T20:29:08.451Z,0.90
2023-02-20T20:31:39.107Z,1.30
2023-02-20T20:34:07.824Z,1.10
2023-02-20T20:36:37.435Z,1.20
2023-02-20T20:39:05.572Z,1.00
2023-02-20T20:41:44.356Z,1.30
2023-02-20T20:44:13.470Z,1.20
2023-02-20T20:46:42.458Z,1.40
2023-02-20T20:49:11.519Z,1.20
2023-02-20T20:51:39.768Z,1.50
2023-02-20T20:54:08.000Z,1.40
2023-02-20T20:56:36.312Z,1.60
2023-02-20T20:59:04.718Z,1.50
2023-02-20T21:01:33.501Z,1.60
2023-02-20T21:04:01.906Z,1.80
2023-02-20T21:06:30.230Z,2.00
2023-02-20T21:08:58.938Z,1.80
2023-02-20T21:11:27.145Z,1.90
2023-02-20T21:13:56.381Z,2.00
2023-02-20T21:16:24.783Z,2.30
2023-02-20T21:18:52.869Z,2.50
2023-02-20T21:21:31.714Z,2.50
2023-02-20T21:24:00.644Z,2.30
2023-02-20T21:26:30.007Z,2.30
2023-02-20T21:28:58.105Z,3.10
2023-02-20T21:31:26.357Z,3.10
2023-02-20T21:33:56.009Z,2.00
2023-02-20T21:36:27.794Z,2.30
2023-02-20T21:38:56.086Z,1.60
2023-02-20T21:41:44.573Z,1.80
2023-02-20T21:44:29.970Z,2.10
2023-02-20T21:46:59.478Z,2.10
2023-02-20T21:49:28.365Z,1.80
2023-02-20T21:51:56.547Z,2.30
2023-02-20T21:54:30.497Z,2.10
2023-02-20T21:56:59.446Z,2.20
2023-02-20T21:59:27.551Z,2.50
2023-02-20T22:01:55.572Z,1.90
2023-02-20T22:04:24.281Z,1.90
2023-02-20T22:07:11.622Z,1.60
2023-02-20T22:10:03.745Z,2.00
2023-02-20T22:12:50.797Z,1.60
2023-02-20T22:15:37.609Z,1.70
2023-02-20T22:18:24.091Z,1.80
